Four Mile Lake, Michigan
Current Conditions -  °F | °C
As of 7:53 AM on Wednesday 22 Oct 2014 (Local Time) from KARB Reporting Station
Overcast Overcast  
Wind Chill: 40°   Ceiling: 1600
Heat Index: 44°   Visibility: 10mi
Dew Point: 36°   Wind: 8mph
Humidity: 73%   Direction: 20°NNE
Pressure: 30.29"   Gusts: NA
Location:  42.3528°N, 83.8974°W
Report Text: KARB 221153Z AUTO 02007KT 10SM OVC016 07/02 A3029 RMK AO2 SLP260 T00670022 10067 20056 53014
Loading
Personal Weather Stations






























Interactive Weather Map
Tropical Storm Tracking
New forecast layout! Learn more

10-Day Weather Forecast

Advertisements
Track Severe Weather on mobile